sensor_id;sensor_type;location;lat;lon;timestamp;P1;durP1;ratioP1;P2;durP2;ratioP2
17059;SDS011;8646;49.716;9.266;2022-11-20T00:02:26;32.83;;;12.07;;
17059;SDS011;8646;49.716;9.266;2022-11-20T00:05:31;48.97;;;17.57;;
17059;SDS011;8646;49.716;9.266;2022-11-20T00:08:35;42.77;;;16.43;;
17059;SDS011;8646;49.716;9.266;2022-11-20T00:11:38;47.23;;;16.93;;
17059;SDS011;8646;49.716;9.266;2022-11-20T00:14:41;52.87;;;19.80;;
17059;SDS011;8646;49.716;9.266;2022-11-20T00:17:44;57.97;;;21.10;;
17059;SDS011;8646;49.716;9.266;2022-11-20T00:20:48;53.80;;;19.60;;
17059;SDS011;8646;49.716;9.266;2022-11-20T00:23:52;53.93;;;19.97;;
17059;SDS011;8646;49.716;9.266;2022-11-20T00:26:56;52.57;;;19.10;;
17059;SDS011;8646;49.716;9.266;2022-11-20T00:29:59;52.77;;;20.07;;
17059;SDS011;8646;49.716;9.266;2022-11-20T00:33:02;56.93;;;20.33;;
17059;SDS011;8646;49.716;9.266;2022-11-20T00:36:07;51.83;;;19.17;;
17059;SDS011;8646;49.716;9.266;2022-11-20T00:39:11;50.73;;;18.10;;
17059;SDS011;8646;49.716;9.266;2022-11-20T00:42:14;53.70;;;20.40;;
17059;SDS011;8646;49.716;9.266;2022-11-20T00:45:17;53.40;;;19.00;;
17059;SDS011;8646;49.716;9.266;2022-11-20T00:48:20;43.73;;;16.83;;
17059;SDS011;8646;49.716;9.266;2022-11-20T00:51:24;49.70;;;16.43;;
17059;SDS011;8646;49.716;9.266;2022-11-20T00:54:28;52.83;;;19.23;;
17059;SDS011;8646;49.716;9.266;2022-11-20T00:57:31;60.93;;;21.30;;
17059;SDS011;8646;49.716;9.266;2022-11-20T01:00:34;58.20;;;20.53;;
17059;SDS011;8646;49.716;9.266;2022-11-20T01:03:37;46.07;;;17.20;;
17059;SDS011;8646;49.716;9.266;2022-11-20T01:06:42;50.00;;;17.97;;
17059;SDS011;8646;49.716;9.266;2022-11-20T01:09:45;46.20;;;17.20;;
17059;SDS011;8646;49.716;9.266;2022-11-20T01:12:48;55.77;;;19.53;;
17059;SDS011;8646;49.716;9.266;2022-11-20T01:16:12;55.67;;;19.97;;
17059;SDS011;8646;49.716;9.266;2022-11-20T01:19:17;47.57;;;16.70;;
17059;SDS011;8646;49.716;9.266;2022-11-20T01:22:22;50.70;;;18.70;;
17059;SDS011;8646;49.716;9.266;2022-11-20T01:25:25;55.13;;;19.47;;
17059;SDS011;8646;49.716;9.266;2022-11-20T01:28:28;53.77;;;18.53;;
17059;SDS011;8646;49.716;9.266;2022-11-20T01:31:31;47.43;;;16.67;;
17059;SDS011;8646;49.716;9.266;2022-11-20T01:34:35;47.03;;;17.03;;
17059;SDS011;8646;49.716;9.266;2022-11-20T01:37:40;50.70;;;17.97;;
17059;SDS011;8646;49.716;9.266;2022-11-20T01:40:42;39.63;;;14.77;;
17059;SDS011;8646;49.716;9.266;2022-11-20T01:43:45;51.60;;;18.17;;
17059;SDS011;8646;49.716;9.266;2022-11-20T01:46:49;53.83;;;16.90;;
17059;SDS011;8646;49.716;9.266;2022-11-20T01:49:59;40.30;;;14.10;;
17059;SDS011;8646;49.716;9.266;2022-11-20T01:53:09;59.40;;;18.87;;
17059;SDS011;8646;49.716;9.266;2022-11-20T01:56:15;58.40;;;19.00;;
17059;SDS011;8646;49.716;9.266;2022-11-20T01:59:18;51.03;;;17.10;;
17059;SDS011;8646;49.716;9.266;2022-11-20T02:02:24;56.03;;;17.63;;
17059;SDS011;8646;49.716;9.266;2022-11-20T02:05:28;66.73;;;20.47;;
17059;SDS011;8646;49.716;9.266;2022-11-20T02:08:36;64.53;;;19.97;;
17059;SDS011;8646;49.716;9.266;2022-11-20T02:11:40;45.77;;;15.47;;
17059;SDS011;8646;49.716;9.266;2022-11-20T02:14:42;53.27;;;17.43;;
17059;SDS011;8646;49.716;9.266;2022-11-20T02:17:45;62.90;;;18.27;;
17059;SDS011;8646;49.716;9.266;2022-11-20T02:20:48;58.07;;;18.57;;
17059;SDS011;8646;49.716;9.266;2022-11-20T02:24:01;58.77;;;17.87;;
17059;SDS011;8646;49.716;9.266;2022-11-20T02:27:07;51.17;;;15.83;;
17059;SDS011;8646;49.716;9.266;2022-11-20T02:30:12;49.57;;;17.40;;
17059;SDS011;8646;49.716;9.266;2022-11-20T02:33:15;67.00;;;19.87;;
17059;SDS011;8646;49.716;9.266;2022-11-20T02:36:18;55.17;;;17.20;;
17059;SDS011;8646;49.716;9.266;2022-11-20T02:39:22;34.50;;;11.73;;
17059;SDS011;8646;49.716;9.266;2022-11-20T02:42:27;35.93;;;13.57;;
17059;SDS011;8646;49.716;9.266;2022-11-20T02:45:29;29.77;;;10.13;;
17059;SDS011;8646;49.716;9.266;2022-11-20T02:48:32;53.93;;;17.37;;
17059;SDS011;8646;49.716;9.266;2022-11-20T02:51:35;51.43;;;16.63;;
17059;SDS011;8646;49.716;9.266;2022-11-20T02:54:39;24.80;;;7.93;;
17059;SDS011;8646;49.716;9.266;2022-11-20T02:57:42;46.83;;;15.40;;
17059;SDS011;8646;49.716;9.266;2022-11-20T03:00:45;54.23;;;18.30;;
17059;SDS011;8646;49.716;9.266;2022-11-20T03:03:47;38.93;;;14.60;;
17059;SDS011;8646;49.716;9.266;2022-11-20T03:06:50;43.90;;;15.53;;
17059;SDS011;8646;49.716;9.266;2022-11-20T03:09:54;37.93;;;13.53;;
17059;SDS011;8646;49.716;9.266;2022-11-20T03:12:57;23.13;;;7.90;;
17059;SDS011;8646;49.716;9.266;2022-11-20T03:16:05;45.90;;;16.00;;
17059;SDS011;8646;49.716;9.266;2022-11-20T03:19:11;32.13;;;11.50;;
17059;SDS011;8646;49.716;9.266;2022-11-20T03:22:14;22.10;;;6.87;;
17059;SDS011;8646;49.716;9.266;2022-11-20T03:25:18;26.73;;;8.13;;
17059;SDS011;8646;49.716;9.266;2022-11-20T03:28:21;26.63;;;9.10;;
17059;SDS011;8646;49.716;9.266;2022-11-20T03:31:25;19.17;;;7.67;;
17059;SDS011;8646;49.716;9.266;2022-11-20T03:34:29;20.27;;;7.03;;
17059;SDS011;8646;49.716;9.266;2022-11-20T03:37:32;18.43;;;5.93;;
17059;SDS011;8646;49.716;9.266;2022-11-20T03:40:36;32.80;;;12.20;;
17059;SDS011;8646;49.716;9.266;2022-11-20T03:43:38;34.80;;;13.07;;
17059;SDS011;8646;49.716;9.266;2022-11-20T03:46:41;31.67;;;10.03;;
17059;SDS011;8646;49.716;9.266;2022-11-20T03:49:44;36.90;;;13.00;;
17059;SDS011;8646;49.716;9.266;2022-11-20T03:52:47;37.63;;;12.83;;
17059;SDS011;8646;49.716;9.266;2022-11-20T03:55:51;25.30;;;9.37;;
17059;SDS011;8646;49.716;9.266;2022-11-20T03:58:54;49.40;;;15.03;;
17059;SDS011;8646;49.716;9.266;2022-11-20T04:01:58;39.03;;;14.47;;
17059;SDS011;8646;49.716;9.266;2022-11-20T04:05:02;57.27;;;18.17;;
17059;SDS011;8646;49.716;9.266;2022-11-20T04:08:05;59.20;;;18.97;;
17059;SDS011;8646;49.716;9.266;2022-11-20T04:11:10;34.63;;;11.60;;
17059;SDS011;8646;49.716;9.266;2022-11-20T04:14:14;48.20;;;15.80;;
17059;SDS011;8646;49.716;9.266;2022-11-20T04:17:18;56.97;;;18.17;;
17059;SDS011;8646;49.716;9.266;2022-11-20T04:20:20;41.53;;;13.00;;
17059;SDS011;8646;49.716;9.266;2022-11-20T04:23:23;53.13;;;17.57;;
17059;SDS011;8646;49.716;9.266;2022-11-20T04:26:30;43.83;;;15.10;;
17059;SDS011;8646;49.716;9.266;2022-11-20T04:29:33;57.07;;;17.50;;
17059;SDS011;8646;49.716;9.266;2022-11-20T04:32:36;47.17;;;15.43;;
17059;SDS011;8646;49.716;9.266;2022-11-20T04:35:39;54.00;;;16.67;;
17059;SDS011;8646;49.716;9.266;2022-11-20T04:38:43;57.10;;;17.73;;
17059;SDS011;8646;49.716;9.266;2022-11-20T04:41:47;59.60;;;17.47;;
17059;SDS011;8646;49.716;9.266;2022-11-20T04:45:10;34.97;;;12.17;;
17059;SDS011;8646;49.716;9.266;2022-11-20T04:48:13;54.77;;;17.10;;
17059;SDS011;8646;49.716;9.266;2022-11-20T04:51:15;50.93;;;17.53;;
17059;SDS011;8646;49.716;9.266;2022-11-20T04:54:18;52.40;;;16.83;;
17059;SDS011;8646;49.716;9.266;2022-11-20T04:57:23;41.00;;;13.57;;
17059;SDS011;8646;49.716;9.266;2022-11-20T05:00:26;46.80;;;15.30;;
17059;SDS011;8646;49.716;9.266;2022-11-20T05:03:28;49.13;;;16.00;;
17059;SDS011;8646;49.716;9.266;2022-11-20T05:06:32;42.30;;;13.20;;
17059;SDS011;8646;49.716;9.266;2022-11-20T05:09:34;58.47;;;16.87;;
17059;SDS011;8646;49.716;9.266;2022-11-20T05:12:39;52.50;;;16.80;;
17059;SDS011;8646;49.716;9.266;2022-11-20T05:15:41;53.13;;;17.93;;
17059;SDS011;8646;49.716;9.266;2022-11-20T05:18:44;50.33;;;15.60;;
17059;SDS011;8646;49.716;9.266;2022-11-20T05:21:47;48.83;;;16.23;;
17059;SDS011;8646;49.716;9.266;2022-11-20T05:24:50;47.60;;;16.13;;
17059;SDS011;8646;49.716;9.266;2022-11-20T05:27:54;59.93;;;18.23;;
17059;SDS011;8646;49.716;9.266;2022-11-20T05:31:03;53.73;;;17.63;;
17059;SDS011;8646;49.716;9.266;2022-11-20T05:34:07;55.87;;;17.13;;
17059;SDS011;8646;49.716;9.266;2022-11-20T05:37:10;54.33;;;16.90;;
17059;SDS011;8646;49.716;9.266;2022-11-20T05:40:13;48.43;;;15.23;;
17059;SDS011;8646;49.716;9.266;2022-11-20T05:43:17;51.47;;;16.67;;
17059;SDS011;8646;49.716;9.266;2022-11-20T05:46:20;54.50;;;16.80;;
17059;SDS011;8646;49.716;9.266;2022-11-20T05:49:29;43.17;;;13.77;;
17059;SDS011;8646;49.716;9.266;2022-11-20T05:52:31;46.73;;;14.90;;
17059;SDS011;8646;49.716;9.266;2022-11-20T05:55:34;44.63;;;14.77;;
17059;SDS011;8646;49.716;9.266;2022-11-20T05:58:38;38.30;;;13.77;;
17059;SDS011;8646;49.716;9.266;2022-11-20T06:01:41;38.63;;;12.87;;
17059;SDS011;8646;49.716;9.266;2022-11-20T06:04:44;45.10;;;15.43;;
17059;SDS011;8646;49.716;9.266;2022-11-20T06:07:47;43.37;;;16.60;;
17059;SDS011;8646;49.716;9.266;2022-11-20T06:10:50;50.43;;;16.73;;
17059;SDS011;8646;49.716;9.266;2022-11-20T06:13:54;57.17;;;17.07;;
17059;SDS011;8646;49.716;9.266;2022-11-20T06:16:57;44.53;;;15.30;;
17059;SDS011;8646;49.716;9.266;2022-11-20T06:20:00;47.73;;;15.43;;
17059;SDS011;8646;49.716;9.266;2022-11-20T06:23:03;33.37;;;12.47;;
17059;SDS011;8646;49.716;9.266;2022-11-20T06:26:07;53.50;;;16.57;;
17059;SDS011;8646;49.716;9.266;2022-11-20T06:29:13;43.30;;;16.23;;
17059;SDS011;8646;49.716;9.266;2022-11-20T06:32:15;49.93;;;15.93;;
17059;SDS011;8646;49.716;9.266;2022-11-20T06:35:18;53.57;;;18.03;;
17059;SDS011;8646;49.716;9.266;2022-11-20T06:38:21;45.33;;;16.80;;
17059;SDS011;8646;49.716;9.266;2022-11-20T06:41:24;47.20;;;14.97;;
17059;SDS011;8646;49.716;9.266;2022-11-20T06:44:28;38.10;;;13.57;;
17059;SDS011;8646;49.716;9.266;2022-11-20T06:47:30;44.47;;;15.13;;
17059;SDS011;8646;49.716;9.266;2022-11-20T06:50:34;43.83;;;15.27;;
17059;SDS011;8646;49.716;9.266;2022-11-20T06:53:38;43.43;;;14.70;;
17059;SDS011;8646;49.716;9.266;2022-11-20T06:56:41;41.60;;;14.17;;
17059;SDS011;8646;49.716;9.266;2022-11-20T06:59:45;35.27;;;12.33;;
17059;SDS011;8646;49.716;9.266;2022-11-20T07:02:48;32.60;;;11.40;;
17059;SDS011;8646;49.716;9.266;2022-11-20T07:05:53;31.40;;;10.10;;
17059;SDS011;8646;49.716;9.266;2022-11-20T07:08:57;32.47;;;12.00;;
17059;SDS011;8646;49.716;9.266;2022-11-20T07:12:00;38.33;;;14.10;;
17059;SDS011;8646;49.716;9.266;2022-11-20T07:15:04;42.53;;;15.70;;
17059;SDS011;8646;49.716;9.266;2022-11-20T07:18:09;43.37;;;13.47;;
17059;SDS011;8646;49.716;9.266;2022-11-20T07:21:12;35.70;;;12.27;;
17059;SDS011;8646;49.716;9.266;2022-11-20T07:24:15;40.43;;;13.47;;
17059;SDS011;8646;49.716;9.266;2022-11-20T07:27:18;26.63;;;10.33;;
17059;SDS011;8646;49.716;9.266;2022-11-20T07:30:22;45.10;;;14.57;;
17059;SDS011;8646;49.716;9.266;2022-11-20T07:33:25;41.30;;;14.50;;
17059;SDS011;8646;49.716;9.266;2022-11-20T07:36:28;41.80;;;14.17;;
17059;SDS011;8646;49.716;9.266;2022-11-20T07:39:30;43.13;;;14.30;;
17059;SDS011;8646;49.716;9.266;2022-11-20T07:42:33;39.03;;;14.27;;
17059;SDS011;8646;49.716;9.266;2022-11-20T07:45:37;38.43;;;13.83;;
17059;SDS011;8646;49.716;9.266;2022-11-20T07:48:41;34.57;;;11.23;;
17059;SDS011;8646;49.716;9.266;2022-11-20T07:51:43;42.73;;;14.53;;
17059;SDS011;8646;49.716;9.266;2022-11-20T07:54:51;41.13;;;14.20;;
17059;SDS011;8646;49.716;9.266;2022-11-20T07:57:54;44.07;;;15.37;;
17059;SDS011;8646;49.716;9.266;2022-11-20T08:01:01;33.90;;;12.77;;
17059;SDS011;8646;49.716;9.266;2022-11-20T08:04:05;40.17;;;13.47;;
17059;SDS011;8646;49.716;9.266;2022-11-20T08:07:09;38.10;;;13.83;;
17059;SDS011;8646;49.716;9.266;2022-11-20T08:10:12;41.77;;;13.67;;
17059;SDS011;8646;49.716;9.266;2022-11-20T08:13:17;55.27;;;16.07;;
17059;SDS011;8646;49.716;9.266;2022-11-20T08:16:39;43.37;;;14.57;;
17059;SDS011;8646;49.716;9.266;2022-11-20T08:19:42;45.10;;;14.90;;
17059;SDS011;8646;49.716;9.266;2022-11-20T08:22:45;52.87;;;16.20;;
17059;SDS011;8646;49.716;9.266;2022-11-20T08:25:48;48.27;;;16.67;;
17059;SDS011;8646;49.716;9.266;2022-11-20T08:28:53;46.23;;;15.63;;
17059;SDS011;8646;49.716;9.266;2022-11-20T08:31:58;61.00;;;20.63;;
17059;SDS011;8646;49.716;9.266;2022-11-20T08:35:00;64.27;;;17.70;;
17059;SDS011;8646;49.716;9.266;2022-11-20T08:38:04;49.87;;;15.67;;
17059;SDS011;8646;49.716;9.266;2022-11-20T08:41:07;38.37;;;12.70;;
17059;SDS011;8646;49.716;9.266;2022-11-20T08:44:28;45.47;;;14.10;;
17059;SDS011;8646;49.716;9.266;2022-11-20T08:47:32;23.37;;;8.57;;
17059;SDS011;8646;49.716;9.266;2022-11-20T08:50:34;44.40;;;13.60;;
17059;SDS011;8646;49.716;9.266;2022-11-20T08:53:37;54.23;;;15.77;;
17059;SDS011;8646;49.716;9.266;2022-11-20T08:56:40;47.37;;;14.63;;
17059;SDS011;8646;49.716;9.266;2022-11-20T08:59:43;38.47;;;13.30;;
17059;SDS011;8646;49.716;9.266;2022-11-20T09:03:08;34.33;;;11.80;;
17059;SDS011;8646;49.716;9.266;2022-11-20T09:06:11;36.33;;;14.27;;
17059;SDS011;8646;49.716;9.266;2022-11-20T09:09:15;54.03;;;17.90;;
17059;SDS011;8646;49.716;9.266;2022-11-20T09:12:17;36.47;;;12.07;;
17059;SDS011;8646;49.716;9.266;2022-11-20T09:15:24;42.33;;;14.70;;
17059;SDS011;8646;49.716;9.266;2022-11-20T09:18:31;46.67;;;14.20;;
17059;SDS011;8646;49.716;9.266;2022-11-20T09:21:35;44.23;;;14.87;;
17059;SDS011;8646;49.716;9.266;2022-11-20T09:24:37;49.43;;;17.03;;
17059;SDS011;8646;49.716;9.266;2022-11-20T09:27:40;46.27;;;14.73;;
17059;SDS011;8646;49.716;9.266;2022-11-20T09:30:45;40.27;;;14.60;;
17059;SDS011;8646;49.716;9.266;2022-11-20T09:33:49;44.13;;;17.60;;
17059;SDS011;8646;49.716;9.266;2022-11-20T09:36:52;44.33;;;15.87;;
17059;SDS011;8646;49.716;9.266;2022-11-20T09:39:55;40.07;;;15.70;;
17059;SDS011;8646;49.716;9.266;2022-11-20T09:42:59;42.07;;;15.83;;
17059;SDS011;8646;49.716;9.266;2022-11-20T09:46:09;48.77;;;17.27;;
17059;SDS011;8646;49.716;9.266;2022-11-20T09:49:23;46.03;;;17.90;;
17059;SDS011;8646;49.716;9.266;2022-11-20T09:52:37;47.83;;;18.97;;
17059;SDS011;8646;49.716;9.266;2022-11-20T09:55:48;48.30;;;20.87;;
17059;SDS011;8646;49.716;9.266;2022-11-20T09:58:51;37.77;;;15.40;;
17059;SDS011;8646;49.716;9.266;2022-11-20T10:01:57;41.57;;;16.37;;
17059;SDS011;8646;49.716;9.266;2022-11-20T10:05:05;39.90;;;17.43;;
17059;SDS011;8646;49.716;9.266;2022-11-20T10:08:14;69.97;;;27.17;;
17059;SDS011;8646;49.716;9.266;2022-11-20T10:11:23;41.27;;;16.50;;
17059;SDS011;8646;49.716;9.266;2022-11-20T10:14:36;39.97;;;15.57;;
17059;SDS011;8646;49.716;9.266;2022-11-20T10:17:53;35.10;;;14.63;;
17059;SDS011;8646;49.716;9.266;2022-11-20T10:21:08;35.20;;;14.97;;
17059;SDS011;8646;49.716;9.266;2022-11-20T10:24:28;29.90;;;12.97;;
17059;SDS011;8646;49.716;9.266;2022-11-20T10:27:52;35.00;;;13.37;;
17059;SDS011;8646;49.716;9.266;2022-11-20T10:31:10;34.07;;;14.27;;
17059;SDS011;8646;49.716;9.266;2022-11-20T10:34:19;30.10;;;12.50;;
17059;SDS011;8646;49.716;9.266;2022-11-20T10:37:27;31.60;;;12.47;;
17059;SDS011;8646;49.716;9.266;2022-11-20T10:40:32;29.57;;;12.67;;
17059;SDS011;8646;49.716;9.266;2022-11-20T10:43:40;21.97;;;10.27;;
17059;SDS011;8646;49.716;9.266;2022-11-20T10:46:44;25.60;;;10.97;;
17059;SDS011;8646;49.716;9.266;2022-11-20T10:49:48;19.77;;;9.27;;
17059;SDS011;8646;49.716;9.266;2022-11-20T10:53:12;23.60;;;10.27;;
17059;SDS011;8646;49.716;9.266;2022-11-20T10:56:26;21.63;;;9.30;;
17059;SDS011;8646;49.716;9.266;2022-11-20T10:59:46;26.70;;;11.17;;
17059;SDS011;8646;49.716;9.266;2022-11-20T11:03:01;51.03;;;17.53;;
17059;SDS011;8646;49.716;9.266;2022-11-20T11:06:06;38.23;;;14.90;;
17059;SDS011;8646;49.716;9.266;2022-11-20T11:09:16;30.23;;;12.10;;
17059;SDS011;8646;49.716;9.266;2022-11-20T11:12:25;26.57;;;10.07;;
17059;SDS011;8646;49.716;9.266;2022-11-20T11:15:35;23.13;;;10.00;;
17059;SDS011;8646;49.716;9.266;2022-11-20T11:18:39;26.37;;;11.67;;
17059;SDS011;8646;49.716;9.266;2022-11-20T11:21:46;30.40;;;13.07;;
17059;SDS011;8646;49.716;9.266;2022-11-20T11:24:57;38.07;;;17.63;;
17059;SDS011;8646;49.716;9.266;2022-11-20T11:28:00;38.83;;;16.40;;
17059;SDS011;8646;49.716;9.266;2022-11-20T11:31:05;34.77;;;15.07;;
17059;SDS011;8646;49.716;9.266;2022-11-20T11:34:11;34.97;;;15.63;;
17059;SDS011;8646;49.716;9.266;2022-11-20T11:37:17;30.57;;;14.50;;
17059;SDS011;8646;49.716;9.266;2022-11-20T11:40:24;29.87;;;14.10;;
17059;SDS011;8646;49.716;9.266;2022-11-20T11:43:35;33.30;;;15.27;;
17059;SDS011;8646;49.716;9.266;2022-11-20T11:46:57;26.63;;;12.13;;
17059;SDS011;8646;49.716;9.266;2022-11-20T11:50:01;27.47;;;13.20;;
17059;SDS011;8646;49.716;9.266;2022-11-20T11:53:19;25.97;;;12.37;;
17059;SDS011;8646;49.716;9.266;2022-11-20T11:56:25;25.70;;;11.37;;
17059;SDS011;8646;49.716;9.266;2022-11-20T11:59:32;24.27;;;11.03;;
17059;SDS011;8646;49.716;9.266;2022-11-20T12:02:48;27.80;;;12.10;;
17059;SDS011;8646;49.716;9.266;2022-11-20T12:05:59;38.10;;;16.03;;
17059;SDS011;8646;49.716;9.266;2022-11-20T12:09:08;22.20;;;10.03;;
17059;SDS011;8646;49.716;9.266;2022-11-20T12:12:15;31.67;;;13.70;;
17059;SDS011;8646;49.716;9.266;2022-11-20T12:15:26;21.30;;;9.47;;
17059;SDS011;8646;49.716;9.266;2022-11-20T12:18:32;27.10;;;11.20;;
17059;SDS011;8646;49.716;9.266;2022-11-20T12:21:36;29.93;;;12.40;;
17059;SDS011;8646;49.716;9.266;2022-11-20T12:24:51;23.60;;;8.67;;
17059;SDS011;8646;49.716;9.266;2022-11-20T12:28:05;26.27;;;10.93;;
17059;SDS011;8646;49.716;9.266;2022-11-20T12:31:23;26.03;;;10.70;;
17059;SDS011;8646;49.716;9.266;2022-11-20T12:34:44;29.30;;;11.50;;
17059;SDS011;8646;49.716;9.266;2022-11-20T12:38:06;25.50;;;11.00;;
17059;SDS011;8646;49.716;9.266;2022-11-20T12:41:39;27.07;;;10.60;;
17059;SDS011;8646;49.716;9.266;2022-11-20T12:45:24;27.07;;;11.97;;
17059;SDS011;8646;49.716;9.266;2022-11-20T12:52:24;23.40;;;10.90;;
17059;SDS011;8646;49.716;9.266;2022-11-20T12:55:42;22.30;;;8.93;;
17059;SDS011;8646;49.716;9.266;2022-11-20T12:58:54;40.63;;;17.40;;
17059;SDS011;8646;49.716;9.266;2022-11-20T13:02:29;62.87;;;23.20;;
17059;SDS011;8646;49.716;9.266;2022-11-20T13:05:43;33.17;;;14.37;;
17059;SDS011;8646;49.716;9.266;2022-11-20T13:08:52;42.03;;;15.73;;
17059;SDS011;8646;49.716;9.266;2022-11-20T13:12:00;36.13;;;13.80;;
17059;SDS011;8646;49.716;9.266;2022-11-20T13:15:11;35.20;;;14.00;;
17059;SDS011;8646;49.716;9.266;2022-11-20T13:18:37;36.40;;;13.90;;
17059;SDS011;8646;49.716;9.266;2022-11-20T13:21:43;34.60;;;13.40;;
17059;SDS011;8646;49.716;9.266;2022-11-20T13:24:50;31.00;;;13.33;;
17059;SDS011;8646;49.716;9.266;2022-11-20T13:27:54;45.40;;;17.43;;
17059;SDS011;8646;49.716;9.266;2022-11-20T13:30:58;32.97;;;13.73;;
17059;SDS011;8646;49.716;9.266;2022-11-20T13:34:04;30.77;;;10.93;;
17059;SDS011;8646;49.716;9.266;2022-11-20T13:37:23;28.37;;;12.00;;
17059;SDS011;8646;49.716;9.266;2022-11-20T13:40:29;29.60;;;12.90;;
17059;SDS011;8646;49.716;9.266;2022-11-20T13:43:34;71.73;;;24.17;;
17059;SDS011;8646;49.716;9.266;2022-11-20T13:46:42;49.27;;;17.90;;
17059;SDS011;8646;49.716;9.266;2022-11-20T13:49:48;58.23;;;21.77;;
17059;SDS011;8646;49.716;9.266;2022-11-20T13:52:52;32.03;;;14.23;;
17059;SDS011;8646;49.716;9.266;2022-11-20T13:56:01;30.93;;;11.10;;
17059;SDS011;8646;49.716;9.266;2022-11-20T13:59:25;25.23;;;10.20;;
17059;SDS011;8646;49.716;9.266;2022-11-20T14:02:39;19.70;;;8.17;;
17059;SDS011;8646;49.716;9.266;2022-11-20T14:05:49;20.17;;;8.53;;
17059;SDS011;8646;49.716;9.266;2022-11-20T14:08:53;25.97;;;10.73;;
17059;SDS011;8646;49.716;9.266;2022-11-20T14:11:57;18.60;;;8.37;;
17059;SDS011;8646;49.716;9.266;2022-11-20T14:15:00;24.90;;;9.13;;
17059;SDS011;8646;49.716;9.266;2022-11-20T14:18:11;23.00;;;9.60;;
17059;SDS011;8646;49.716;9.266;2022-11-20T14:21:24;21.70;;;9.60;;
17059;SDS011;8646;49.716;9.266;2022-11-20T14:24:30;26.57;;;11.27;;
17059;SDS011;8646;49.716;9.266;2022-11-20T14:27:34;24.70;;;10.57;;
17059;SDS011;8646;49.716;9.266;2022-11-20T14:30:42;25.00;;;10.30;;
17059;SDS011;8646;49.716;9.266;2022-11-20T14:33:46;24.97;;;11.67;;
17059;SDS011;8646;49.716;9.266;2022-11-20T14:36:52;24.00;;;9.97;;
17059;SDS011;8646;49.716;9.266;2022-11-20T14:39:58;27.83;;;12.07;;
17059;SDS011;8646;49.716;9.266;2022-11-20T14:43:04;21.83;;;7.43;;
17059;SDS011;8646;49.716;9.266;2022-11-20T14:46:20;17.67;;;8.17;;
17059;SDS011;8646;49.716;9.266;2022-11-20T14:49:24;16.70;;;8.70;;
17059;SDS011;8646;49.716;9.266;2022-11-20T14:52:29;18.30;;;8.40;;
17059;SDS011;8646;49.716;9.266;2022-11-20T14:55:32;20.73;;;9.53;;
17059;SDS011;8646;49.716;9.266;2022-11-20T14:58:37;20.10;;;8.83;;
17059;SDS011;8646;49.716;9.266;2022-11-20T15:01:39;23.77;;;9.60;;
17059;SDS011;8646;49.716;9.266;2022-11-20T15:04:57;21.80;;;9.17;;
17059;SDS011;8646;49.716;9.266;2022-11-20T15:08:08;18.20;;;7.87;;
17059;SDS011;8646;49.716;9.266;2022-11-20T15:11:16;18.47;;;7.97;;
17059;SDS011;8646;49.716;9.266;2022-11-20T15:14:22;22.50;;;9.60;;
17059;SDS011;8646;49.716;9.266;2022-11-20T15:17:26;20.87;;;8.17;;
17059;SDS011;8646;49.716;9.266;2022-11-20T15:20:30;22.33;;;8.33;;
17059;SDS011;8646;49.716;9.266;2022-11-20T15:23:36;19.67;;;8.40;;
17059;SDS011;8646;49.716;9.266;2022-11-20T15:26:38;22.40;;;7.00;;
17059;SDS011;8646;49.716;9.266;2022-11-20T15:29:41;20.67;;;7.17;;
17059;SDS011;8646;49.716;9.266;2022-11-20T15:32:45;20.97;;;8.27;;
17059;SDS011;8646;49.716;9.266;2022-11-20T15:35:48;18.37;;;8.20;;
17059;SDS011;8646;49.716;9.266;2022-11-20T15:38:52;18.87;;;7.37;;
17059;SDS011;8646;49.716;9.266;2022-11-20T15:41:55;21.30;;;8.43;;
17059;SDS011;8646;49.716;9.266;2022-11-20T15:44:58;20.07;;;7.67;;
17059;SDS011;8646;49.716;9.266;2022-11-20T15:48:00;21.20;;;8.17;;
17059;SDS011;8646;49.716;9.266;2022-11-20T15:51:06;31.43;;;12.63;;
17059;SDS011;8646;49.716;9.266;2022-11-20T15:54:25;33.33;;;13.37;;
17059;SDS011;8646;49.716;9.266;2022-11-20T15:57:28;30.07;;;13.00;;
17059;SDS011;8646;49.716;9.266;2022-11-20T16:00:31;33.07;;;14.17;;
17059;SDS011;8646;49.716;9.266;2022-11-20T16:03:33;35.33;;;14.97;;
17059;SDS011;8646;49.716;9.266;2022-11-20T16:06:36;44.40;;;17.63;;
17059;SDS011;8646;49.716;9.266;2022-11-20T16:09:41;45.47;;;17.37;;
17059;SDS011;8646;49.716;9.266;2022-11-20T16:12:44;33.43;;;13.33;;
17059;SDS011;8646;49.716;9.266;2022-11-20T16:16:05;42.53;;;14.13;;
17059;SDS011;8646;49.716;9.266;2022-11-20T16:19:11;46.30;;;17.27;;
17059;SDS011;8646;49.716;9.266;2022-11-20T16:22:14;37.50;;;14.10;;
17059;SDS011;8646;49.716;9.266;2022-11-20T16:25:21;46.60;;;18.00;;
17059;SDS011;8646;49.716;9.266;2022-11-20T16:28:24;38.03;;;15.27;;
17059;SDS011;8646;49.716;9.266;2022-11-20T16:31:27;41.97;;;14.97;;
17059;SDS011;8646;49.716;9.266;2022-11-20T16:34:30;42.57;;;15.77;;
17059;SDS011;8646;49.716;9.266;2022-11-20T16:37:33;49.03;;;17.87;;
17059;SDS011;8646;49.716;9.266;2022-11-20T16:40:38;51.07;;;19.53;;
17059;SDS011;8646;49.716;9.266;2022-11-20T16:43:43;50.17;;;20.00;;
17059;SDS011;8646;49.716;9.266;2022-11-20T16:46:47;54.57;;;19.60;;
17059;SDS011;8646;49.716;9.266;2022-11-20T16:49:50;58.47;;;20.60;;
17059;SDS011;8646;49.716;9.266;2022-11-20T16:52:53;72.40;;;20.93;;
17059;SDS011;8646;49.716;9.266;2022-11-20T16:55:58;68.63;;;21.83;;
17059;SDS011;8646;49.716;9.266;2022-11-20T16:59:10;59.37;;;21.20;;
17059;SDS011;8646;49.716;9.266;2022-11-20T17:02:13;82.60;;;25.40;;
17059;SDS011;8646;49.716;9.266;2022-11-20T17:05:16;72.90;;;14.07;;
17059;SDS011;8646;49.716;9.266;2022-11-20T17:08:19;69.10;;;19.83;;
17059;SDS011;8646;49.716;9.266;2022-11-20T17:11:23;64.47;;;17.00;;
17059;SDS011;8646;49.716;9.266;2022-11-20T17:14:27;38.53;;;14.17;;
17059;SDS011;8646;49.716;9.266;2022-11-20T17:17:30;43.33;;;14.60;;
17059;SDS011;8646;49.716;9.266;2022-11-20T17:20:32;37.13;;;12.70;;
17059;SDS011;8646;49.716;9.266;2022-11-20T17:23:36;53.93;;;20.33;;
17059;SDS011;8646;49.716;9.266;2022-11-20T17:26:42;47.00;;;13.80;;
17059;SDS011;8646;49.716;9.266;2022-11-20T17:29:45;60.03;;;19.10;;
17059;SDS011;8646;49.716;9.266;2022-11-20T17:32:48;63.47;;;17.57;;
17059;SDS011;8646;49.716;9.266;2022-11-20T17:35:51;69.60;;;19.37;;
17059;SDS011;8646;49.716;9.266;2022-11-20T17:38:54;57.50;;;15.77;;
17059;SDS011;8646;49.716;9.266;2022-11-20T17:41:58;44.23;;;13.60;;
17059;SDS011;8646;49.716;9.266;2022-11-20T17:45:18;45.47;;;14.13;;
17059;SDS011;8646;49.716;9.266;2022-11-20T17:48:21;49.07;;;17.90;;
17059;SDS011;8646;49.716;9.266;2022-11-20T17:51:26;60.73;;;18.67;;
17059;SDS011;8646;49.716;9.266;2022-11-20T17:54:29;26.90;;;9.90;;
17059;SDS011;8646;49.716;9.266;2022-11-20T17:57:34;35.57;;;11.80;;
17059;SDS011;8646;49.716;9.266;2022-11-20T18:01:02;41.97;;;15.40;;
17059;SDS011;8646;49.716;9.266;2022-11-20T18:04:06;29.30;;;12.13;;
17059;SDS011;8646;49.716;9.266;2022-11-20T18:07:09;39.03;;;12.33;;
17059;SDS011;8646;49.716;9.266;2022-11-20T18:10:12;37.50;;;13.47;;
17059;SDS011;8646;49.716;9.266;2022-11-20T18:13:16;26.87;;;10.23;;
17059;SDS011;8646;49.716;9.266;2022-11-20T18:16:19;40.70;;;12.83;;
17059;SDS011;8646;49.716;9.266;2022-11-20T18:19:23;33.20;;;11.10;;
17059;SDS011;8646;49.716;9.266;2022-11-20T18:22:35;68.63;;;25.90;;
17059;SDS011;8646;49.716;9.266;2022-11-20T18:25:38;50.20;;;19.83;;
17059;SDS011;8646;49.716;9.266;2022-11-20T18:28:45;43.43;;;13.53;;
17059;SDS011;8646;49.716;9.266;2022-11-20T18:31:48;44.87;;;15.93;;